Van Horn, TX (79855)

5:46 PM CDT on September 26, 2016 (GMT -0500)
Guadalupe Pass | | Change Station

Elev 5453 ft 31.83 °N, 104.81 °W | Updated 55 minutes ago

Overcast
Overcast
52 °F
Feels Like 52 °F
N
33
Wind Variable Wind from NE
Gusts 44 mph

Today
High -- | Low -- °F
--% Chance of Precip.
Yesterday
High -- | Low -- °F
Precip. -- in
Pressure 30.24 in
Visibility 10.0 miles
Clouds Overcast 8500 ft
Dew Point 43 °F
Humidity 71%
Rainfall 0.01 in
Snow Depth Not available.
7:50 AM 7:50 PM
Waning Crescent, 16% visible
METAR KGDP 262151Z AUTO 05029G38KT 10SM OVC085 11/06 A3033 RMK AO2 PK WND 04038/2150 SLP238 T01110061
Pressure 30.24 in
Visibility 10.0 miles
Clouds Overcast 8500 ft
Dew Point 43 °F
Humidity 71%
Rainfall 0.01 in
Snow Depth Not available.
7:50 AM 7:50 PM
Waning Crescent, 16% visible
METAR KGDP 262151Z AUTO 05029G38KT 10SM OVC085 11/06 A3033 RMK AO2 PK WND 04038/2150 SLP238 T01110061

10-Day Weather Forecast

Almanac

Astronomy

Sep. 26, 2016 Rise Set
Actual Time
Civil Twilight
Nautical Twilight
Astronomical Twilight
Moon
Length of Visible Light
Length of Day
Tomorrow will be .
, % of the Moon is Illuminated

Today's Extremes

State Highs State Lows

Community

WunderPhotos

Upload Photos

1,941,981 photos uploaded!

WunderBlog® & News

Nearby

Air Quality

  Air Quality AQ Index Pollutant
Not available.

Snow Depth

Station Depth Elevation

Earthquake Activity

City Distance Mag. Time & Date
Minimum magnitude displayed is 2.5.

Coastal Water Temperatures

Place Temperature

Stations

Nearby Weather Stations

Station Location Temp. Windchill Dew Point Humidity Wind Precip. Elev Updated Type
                   

Watches & Warnings

There are currently no watches in effect.